createdAt,value
2022-11-21T00:02:08.521Z,95360.56
2022-11-21T00:05:10.208Z,95363.19
2022-11-21T00:08:13.551Z,95356.81
2022-11-21T00:11:15.593Z,95361.94
2022-11-21T00:14:17.279Z,95351.06
2022-11-21T00:17:19.121Z,95362.50
2022-11-21T00:20:22.064Z,95355.25
2022-11-21T00:23:26.111Z,95355.78
2022-11-21T00:26:27.865Z,95360.94
2022-11-21T00:29:29.517Z,95360.09
2022-11-21T00:32:31.732Z,95367.91
2022-11-21T00:35:34.489Z,95367.59
2022-11-21T00:38:36.846Z,95365.78
2022-11-21T00:41:38.444Z,95364.94
2022-11-21T00:44:40.052Z,95366.34
2022-11-21T00:47:41.821Z,95357.84
2022-11-21T00:50:44.610Z,95376.78
2022-11-21T00:53:46.225Z,95370.66
2022-11-21T00:56:47.816Z,95384.56
2022-11-21T00:59:49.425Z,95382.59
2022-11-21T01:02:51.058Z,95378.59
2022-11-21T01:05:52.673Z,95382.88
2022-11-21T01:08:54.490Z,95386.66
2022-11-21T01:11:56.861Z,95360.94
2022-11-21T01:14:58.474Z,95376.38
2022-11-21T01:18:00.058Z,95366.63
2022-11-21T01:21:07.443Z,95363.97
2022-11-21T01:24:11.630Z,95358.56
2022-11-21T01:27:13.328Z,95361.19
2022-11-21T01:30:14.979Z,95356.88
2022-11-21T01:33:16.555Z,95354.94
2022-11-21T01:36:24.356Z,95348.94
2022-11-21T01:39:25.987Z,95342.81
2022-11-21T01:42:27.589Z,95342.53
2022-11-21T01:45:52.966Z,95343.38
2022-11-21T01:49:11.637Z,95342.22
2022-11-21T01:52:23.357Z,95326.22
2022-11-21T01:55:24.953Z,95316.63
2022-11-21T01:58:27.890Z,95315.50
2022-11-21T02:01:30.386Z,95306.72
2022-11-21T02:04:34.160Z,95310.91
2022-11-21T02:07:41.087Z,95307.13
2022-11-21T02:10:58.743Z,95297.09
2022-11-21T02:14:00.870Z,95293.47
2022-11-21T02:17:06.970Z,95291.25
2022-11-21T02:20:12.438Z,95299.75
2022-11-21T02:23:35.510Z,95285.81
2022-11-21T02:26:37.952Z,95275.22
2022-11-21T02:29:40.470Z,95269.09
2022-11-21T02:32:48.095Z,95264.13
2022-11-21T02:36:02.555Z,95272.22
2022-11-21T02:39:06.937Z,95263.84
2022-11-21T02:42:23.862Z,95269.31
2022-11-21T02:45:31.879Z,95258.88
2022-11-21T02:48:34.845Z,95260.00
2022-11-21T02:51:36.356Z,95254.56
2022-11-21T02:54:37.860Z,95255.69
2022-11-21T02:57:40.114Z,95248.56
2022-11-21T03:00:43.075Z,95239.81
2022-11-21T03:03:44.638Z,95228.69
2022-11-21T03:06:46.119Z,95238.44
2022-11-21T03:09:47.654Z,95226.47
2022-11-21T03:12:49.369Z,95228.97
2022-11-21T03:15:50.932Z,95220.53
2022-11-21T03:18:52.466Z,95227.31
2022-11-21T03:21:54.113Z,95228.31
2022-11-21T03:24:55.631Z,95217.19
2022-11-21T03:27:57.135Z,95230.78
2022-11-21T03:30:58.699Z,95229.81
2022-11-21T03:34:00.228Z,95227.72
2022-11-21T03:37:02.128Z,95229.22
2022-11-21T03:40:04.374Z,95228.41
2022-11-21T03:43:06.311Z,95220.88
2022-11-21T03:46:07.853Z,95221.84
2022-11-21T03:49:10.101Z,95227.38
2022-11-21T03:52:11.617Z,95229.31
2022-11-21T03:55:13.239Z,95213.31
2022-11-21T03:58:14.734Z,95223.75
2022-11-21T04:01:16.459Z,95233.19
2022-11-21T04:04:18.399Z,95228.72
2022-11-21T04:07:19.943Z,95217.63
2022-11-21T04:10:21.598Z,95220.28
2022-11-21T04:13:23.683Z,95218.47
2022-11-21T04:16:25.218Z,95212.63
2022-11-21T04:19:26.776Z,95210.56
2022-11-21T04:22:28.280Z,95218.50
2022-11-21T04:25:29.888Z,95195.44
2022-11-21T04:28:31.748Z,95201.56
2022-11-21T04:31:33.303Z,95191.00
2022-11-21T04:34:34.857Z,95185.31
2022-11-21T04:37:39.488Z,95191.59
2022-11-21T04:40:43.642Z,95188.78
2022-11-21T04:43:45.169Z,95179.88
2022-11-21T04:46:46.677Z,95181.97
2022-11-21T04:49:48.236Z,95190.28
2022-11-21T04:52:54.690Z,95185.19
2022-11-21T04:55:56.289Z,95195.44
2022-11-21T04:58:57.859Z,95196.41
2022-11-21T05:01:59.419Z,95192.09
2022-11-21T05:05:01.013Z,95194.75
2022-11-21T05:08:02.557Z,95196.59
2022-11-21T05:11:22.680Z,95193.63
2022-11-21T05:14:27.337Z,95196.41
2022-11-21T05:17:29.589Z,95184.16
2022-11-21T05:20:35.714Z,95180.31
2022-11-21T05:23:38.302Z,95186.44
2022-11-21T05:26:39.840Z,95192.19
2022-11-21T05:29:41.542Z,95185.91
2022-11-21T05:32:43.634Z,95184.53
2022-11-21T05:35:45.196Z,95188.84
2022-11-21T05:38:46.732Z,95185.34
2022-11-21T05:41:48.297Z,95185.34
2022-11-21T05:44:49.831Z,95176.91
2022-11-21T05:47:51.391Z,95184.84
2022-11-21T05:50:53.018Z,95186.34
2022-11-21T05:53:54.509Z,95183.16
2022-11-21T05:56:56.036Z,95185.81
2022-11-21T05:59:57.557Z,95185.13
2022-11-21T06:03:17.953Z,95191.38
2022-11-21T06:06:23.702Z,95183.44
2022-11-21T06:09:26.465Z,95194.34
2022-11-21T06:12:28.045Z,95189.88
2022-11-21T06:15:29.819Z,95187.06
2022-11-21T06:18:33.752Z,95178.31
2022-11-21T06:21:37.233Z,95188.88
2022-11-21T06:24:38.827Z,95176.22
2022-11-21T06:27:40.345Z,95181.03
2022-11-21T06:30:41.945Z,95179.53
2022-11-21T06:33:44.670Z,95184.00
2022-11-21T06:36:46.238Z,95188.59
2022-11-21T06:39:48.756Z,95183.59
2022-11-21T06:42:50.279Z,95185.72
2022-11-21T06:45:51.842Z,95187.50
2022-11-21T06:48:54.148Z,95195.59
2022-11-21T06:51:55.657Z,95200.34
2022-11-21T06:54:57.206Z,95207.97
2022-11-21T06:57:59.296Z,95212.41
2022-11-21T07:01:09.509Z,95212.72
2022-11-21T07:04:11.095Z,95216.78
2022-11-21T07:07:12.669Z,95217.59
2022-11-21T07:10:14.552Z,95229.16
2022-11-21T07:13:22.074Z,95219.56
2022-11-21T07:16:26.192Z,95230.28
2022-11-21T07:19:28.267Z,95227.78
2022-11-21T07:22:30.056Z,95224.28
2022-11-21T07:25:36.461Z,95224.16
2022-11-21T07:28:38.437Z,95243.09
2022-11-21T07:31:39.958Z,95225.28
2022-11-21T07:34:41.480Z,95231.13
2022-11-21T07:37:42.972Z,95226.53
2022-11-21T07:40:44.543Z,95229.31
2022-11-21T07:43:46.084Z,95229.00
2022-11-21T07:46:47.585Z,95230.66
2022-11-21T07:49:49.149Z,95233.31
2022-11-21T07:52:50.686Z,95240.28
2022-11-21T07:55:52.240Z,95243.59
2022-11-21T07:58:53.865Z,95232.06
2022-11-21T08:01:55.570Z,95231.22
2022-11-21T08:04:57.290Z,95248.19
2022-11-21T08:07:58.904Z,95241.59
2022-11-21T08:11:05.560Z,95251.47
2022-11-21T08:14:07.085Z,95256.47
2022-11-21T08:17:08.633Z,95253.50
2022-11-21T08:20:10.480Z,95246.28
2022-11-21T08:23:12.176Z,95261.03
2022-11-21T08:26:13.727Z,95267.81
2022-11-21T08:29:16.410Z,95266.56
2022-11-21T08:32:17.963Z,95267.22
2022-11-21T08:35:19.582Z,95263.47
2022-11-21T08:38:21.183Z,95266.94
2022-11-21T08:41:41.368Z,95269.16
2022-11-21T08:44:42.903Z,95274.16
2022-11-21T08:47:44.474Z,95270.41
2022-11-21T08:50:46.006Z,95270.22
2022-11-21T08:53:47.516Z,95262.00
2022-11-21T08:56:50.043Z,95264.38
2022-11-21T08:59:51.551Z,95261.25
2022-11-21T09:02:53.283Z,95254.69
2022-11-21T09:05:57.809Z,95247.16
2022-11-21T09:09:02.249Z,95259.78
2022-11-21T09:12:03.930Z,95256.31
2022-11-21T09:15:24.617Z,95255.84
2022-11-21T09:18:26.234Z,95248.31
2022-11-21T09:21:27.740Z,95239.53
2022-11-21T09:24:29.242Z,95242.41
2022-11-21T09:27:31.261Z,95246.28
2022-11-21T09:30:33.120Z,95230.25
2022-11-21T09:33:35.724Z,95222.66
2022-11-21T09:36:49.714Z,95235.44
2022-11-21T09:39:51.460Z,95245.28
2022-11-21T09:43:30.750Z,95235.09
2022-11-21T09:46:39.354Z,95234.91
2022-11-21T09:49:44.178Z,95223.34
2022-11-21T09:53:06.468Z,95220.91
2022-11-21T09:56:12.952Z,95234.41
2022-11-21T09:59:37.045Z,95230.28
2022-11-21T10:02:39.965Z,95236.44
2022-11-21T10:05:47.279Z,95233.31
2022-11-21T10:09:08.743Z,95217.41
2022-11-21T10:12:38.287Z,95210.34
2022-11-21T10:15:48.936Z,95216.16
2022-11-21T10:19:19.549Z,95198.00
2022-11-21T10:22:49.418Z,95198.34
2022-11-21T10:25:59.855Z,95194.78
2022-11-21T10:29:09.932Z,95192.47
2022-11-21T10:32:22.133Z,95194.16
2022-11-21T10:35:37.326Z,95184.81
2022-11-21T10:38:41.978Z,95203.75
2022-11-21T10:41:55.794Z,95195.97
2022-11-21T10:45:20.082Z,95194.81
2022-11-21T10:48:21.701Z,95191.00
2022-11-21T10:51:38.438Z,95190.56
2022-11-21T10:55:03.104Z,95176.50
2022-11-21T10:58:18.809Z,95167.63
2022-11-21T11:01:23.506Z,95148.59
2022-11-21T11:04:29.126Z,95156.72
2022-11-21T11:07:31.997Z,95146.78
2022-11-21T11:10:42.769Z,95149.28
2022-11-21T11:14:12.992Z,95153.25
2022-11-21T11:17:15.168Z,95139.84
2022-11-21T11:20:34.302Z,95135.69
2022-11-21T11:23:35.798Z,95125.41
2022-11-21T11:26:46.587Z,95113.84
2022-11-21T11:29:53.213Z,95111.38
2022-11-21T11:32:54.881Z,95108.88
2022-11-21T11:36:06.306Z,95107.75
2022-11-21T11:39:18.873Z,95095.13
2022-11-21T11:43:16.491Z,95098.28
2022-11-21T11:46:32.875Z,95091.00
2022-11-21T11:49:59.270Z,95096.97
2022-11-21T11:53:03.464Z,95098.47
2022-11-21T11:56:22.821Z,95095.28
2022-11-21T11:59:31.453Z,95093.47
2022-11-21T12:02:51.803Z,95084.19
2022-11-21T12:06:04.678Z,95069.94
2022-11-21T12:09:21.531Z,95051.66
2022-11-21T12:12:26.073Z,95044.03
2022-11-21T12:15:50.460Z,95039.72
2022-11-21T12:19:00.594Z,95023.47
2022-11-21T12:22:06.398Z,95019.13
2022-11-21T12:25:12.292Z,95017.47
2022-11-21T12:28:45.047Z,95005.19
2022-11-21T12:35:44.365Z,94996.91
2022-11-21T12:39:23.604Z,94975.81
2022-11-21T12:42:51.464Z,94987.25
2022-11-21T12:46:27.841Z,94983.91
2022-11-21T12:50:25.376Z,94989.91
2022-11-21T12:54:09.715Z,94988.56
2022-11-21T12:57:26.793Z,94979.59
2022-11-21T13:00:40.676Z,94967.13
2022-11-21T13:03:53.514Z,94970.09
2022-11-21T13:06:59.624Z,94951.84
2022-11-21T13:10:04.184Z,94954.97
2022-11-21T13:13:19.272Z,94938.34
2022-11-21T13:16:36.872Z,94935.22
2022-11-21T13:19:50.129Z,94931.03
2022-11-21T13:22:57.466Z,94932.31
2022-11-21T13:25:59.012Z,94926.50
2022-11-21T13:29:10.774Z,94918.53
2022-11-21T13:32:40.295Z,94916.72
2022-11-21T13:35:50.894Z,94907.53
2022-11-21T13:38:55.374Z,94897.41
2022-11-21T13:42:19.966Z,94907.66
2022-11-21T13:45:47.174Z,94903.84
2022-11-21T13:49:05.883Z,94898.69
2022-11-21T13:52:19.185Z,94891.72
2022-11-21T13:55:39.753Z,94888.44
2022-11-21T13:58:51.307Z,94887.28
2022-11-21T14:02:08.084Z,94884.16
2022-11-21T14:05:15.458Z,94881.84
2022-11-21T14:08:23.361Z,94868.91
2022-11-21T14:11:48.455Z,94860.44
2022-11-21T14:15:01.981Z,94852.84
2022-11-21T14:18:04.162Z,94845.56
2022-11-21T14:21:08.294Z,94839.59
2022-11-21T14:24:19.493Z,94842.75
2022-11-21T14:27:44.881Z,94835.31
2022-11-21T14:30:47.972Z,94836.19
2022-11-21T14:33:49.596Z,94828.75
2022-11-21T14:36:51.257Z,94821.47
2022-11-21T14:39:57.153Z,94821.97
2022-11-21T14:42:59.856Z,94816.19
2022-11-21T14:46:01.559Z,94812.19
2022-11-21T14:49:22.592Z,94817.03
2022-11-21T14:52:30.569Z,94803.28
2022-11-21T14:55:33.457Z,94811.13
2022-11-21T14:58:35.062Z,94812.63
2022-11-21T15:01:36.764Z,94796.72
2022-11-21T15:04:38.319Z,94792.63
2022-11-21T15:07:45.535Z,94793.09
2022-11-21T15:10:47.248Z,94793.78
2022-11-21T15:17:20.553Z,94781.91
2022-11-21T15:20:22.807Z,94765.00
2022-11-21T15:23:36.562Z,94772.81
2022-11-21T15:26:41.073Z,94752.41
2022-11-21T15:29:42.597Z,94753.09
2022-11-21T15:33:01.110Z,94746.28
2022-11-21T15:36:12.768Z,94729.09
2022-11-21T15:39:21.733Z,94726.44
2022-11-21T15:42:32.356Z,94725.09
2022-11-21T15:45:34.020Z,94718.19
2022-11-21T15:48:35.580Z,94720.47
2022-11-21T15:55:19.561Z,94714.53
2022-11-21T15:58:21.124Z,94715.34
2022-11-21T16:01:24.955Z,94707.25
2022-11-21T16:04:27.271Z,94699.44
2022-11-21T16:10:51.597Z,94685.19
2022-11-21T16:14:01.540Z,94688.50
2022-11-21T16:17:03.107Z,94686.53
2022-11-21T16:20:05.226Z,94675.25
2022-11-21T16:23:06.827Z,94678.22
2022-11-21T16:26:09.793Z,94672.09
2022-11-21T16:29:11.432Z,94666.13
2022-11-21T16:32:12.960Z,94656.88
2022-11-21T16:35:14.574Z,94664.13
2022-11-21T16:38:16.071Z,94661.97
2022-11-21T16:41:19.626Z,94666.59
2022-11-21T16:44:21.153Z,94663.47
2022-11-21T16:47:22.727Z,94662.09
2022-11-21T16:50:24.335Z,94658.78
2022-11-21T16:53:25.938Z,94648.72
2022-11-21T16:56:27.837Z,94634.16
2022-11-21T16:59:29.517Z,94625.56
2022-11-21T17:02:31.518Z,94623.91
2022-11-21T17:05:33.035Z,94611.19
2022-11-21T17:08:35.434Z,94606.03
2022-11-21T17:11:37.140Z,94607.34
2022-11-21T17:14:38.668Z,94606.69
2022-11-21T17:17:41.378Z,94583.56
2022-11-21T17:20:42.967Z,94573.63
2022-11-21T17:23:45.926Z,94578.44
2022-11-21T17:26:47.468Z,94567.19
2022-11-21T17:29:49.434Z,94561.22
2022-11-21T17:32:50.982Z,94552.97
2022-11-21T17:35:52.555Z,94562.19
2022-11-21T17:38:54.752Z,94561.84
2022-11-21T17:41:59.890Z,94555.22
2022-11-21T17:45:01.426Z,94543.16
2022-11-21T17:48:02.987Z,94552.06
2022-11-21T17:51:13.568Z,94534.75
2022-11-21T17:54:17.648Z,94536.56
2022-11-21T17:57:19.298Z,94528.63
2022-11-21T18:00:21.119Z,94533.91
2022-11-21T18:03:23.188Z,94526.00
2022-11-21T18:06:32.137Z,94522.38
2022-11-21T18:09:35.712Z,94509.47
2022-11-21T18:12:39.685Z,94504.34
2022-11-21T18:15:41.490Z,94494.94
2022-11-21T18:18:43.153Z,94486.34
2022-11-21T18:21:46.070Z,94477.75
2022-11-21T18:29:43.587Z,94474.13
2022-11-21T18:33:31.480Z,94459.72
2022-11-21T18:37:10.521Z,94453.66
2022-11-21T18:40:30.053Z,94452.84
2022-11-21T18:43:47.019Z,94433.66
2022-11-21T18:47:19.649Z,94440.94
2022-11-21T18:50:50.588Z,94443.25
2022-11-21T18:54:21.303Z,94437.16
2022-11-21T18:57:33.730Z,94435.00
2022-11-21T19:00:42.221Z,94430.56
2022-11-21T19:03:50.372Z,94417.31
2022-11-21T19:07:01.875Z,94410.72
2022-11-21T19:10:35.508Z,94400.81
2022-11-21T19:13:43.257Z,94389.25
2022-11-21T19:16:55.247Z,94375.38
2022-11-21T19:20:15.675Z,94372.75
2022-11-21T19:23:40.734Z,94359.38
2022-11-21T19:26:50.643Z,94375.41
2022-11-21T19:29:55.560Z,94361.38
2022-11-21T19:33:03.695Z,94361.38
2022-11-21T19:36:12.098Z,94342.22
2022-11-21T19:39:18.084Z,94356.13
2022-11-21T19:42:33.249Z,94352.47
2022-11-21T19:46:23.318Z,94374.94
2022-11-21T19:50:18.988Z,94379.38
2022-11-21T19:53:47.169Z,94378.41
2022-11-21T19:56:57.140Z,94350.84
2022-11-21T20:00:15.307Z,94348.34
2022-11-21T20:03:23.114Z,94318.31
2022-11-21T20:06:30.923Z,94313.50
2022-11-21T20:09:34.697Z,94338.47
2022-11-21T20:12:36.661Z,94334.31
2022-11-21T20:15:39.356Z,94343.38
2022-11-21T20:18:43.721Z,94341.25
2022-11-21T20:21:49.844Z,94330.69
2022-11-21T20:24:52.059Z,94306.59
2022-11-21T20:28:17.008Z,94314.31
2022-11-21T20:31:43.375Z,94311.53
2022-11-21T20:34:53.987Z,94297.00
2022-11-21T20:38:09.375Z,94316.97
2022-11-21T20:41:11.175Z,94301.78
2022-11-21T20:44:57.059Z,94306.25
2022-11-21T20:47:38.721Z,94308.88
2022-11-21T20:54:50.572Z,94292.38
2022-11-21T20:58:12.700Z,94302.25
2022-11-21T21:01:33.246Z,94282.16
2022-11-21T21:04:48.821Z,94290.72
2022-11-21T21:08:23.640Z,94274.69
2022-11-21T21:12:02.731Z,94298.16
2022-11-21T21:15:05.745Z,94286.09
2022-11-21T21:18:23.434Z,94273.88
2022-11-21T21:28:54.774Z,94287.25
2022-11-21T21:32:26.514Z,94293.03
2022-11-21T21:36:04.600Z,94279.16
2022-11-21T21:39:32.657Z,94287.75
2022-11-21T21:43:14.574Z,94273.41
2022-11-21T21:46:51.705Z,94273.72
2022-11-21T21:49:58.415Z,94252.28
2022-11-21T21:53:00.726Z,94267.63
2022-11-21T21:56:02.549Z,94268.13
2022-11-21T21:59:17.442Z,94267.97
2022-11-21T22:02:30.064Z,94244.03
2022-11-21T22:06:29.046Z,94247.81
2022-11-21T22:09:47.729Z,94295.19
2022-11-21T22:13:27.973Z,94334.00
2022-11-21T22:16:42.210Z,94331.16
2022-11-21T22:20:56.036Z,94331.69
2022-11-21T22:24:31.058Z,94342.25
2022-11-21T22:31:22.289Z,94304.13
2022-11-21T22:34:33.505Z,94339.09
2022-11-21T22:41:33.256Z,94320.44
2022-11-21T22:45:00.008Z,94286.44
2022-11-21T22:48:05.802Z,94263.69
2022-11-21T22:51:08.234Z,94253.47
2022-11-21T22:54:10.180Z,94252.94
2022-11-21T22:57:11.887Z,94269.94
2022-11-21T23:00:39.370Z,94293.38
2022-11-21T23:04:00.185Z,94286.44
2022-11-21T23:07:15.889Z,94281.84
2022-11-21T23:13:59.176Z,94307.59
2022-11-21T23:17:23.897Z,94298.66
2022-11-21T23:20:39.523Z,94306.75
2022-11-21T23:24:25.927Z,94307.59
2022-11-21T23:27:51.584Z,94311.06
2022-11-21T23:30:58.978Z,94319.97
2022-11-21T23:34:20.239Z,94310.88
2022-11-21T23:37:31.014Z,94300.13
2022-11-21T23:40:59.983Z,94298.66
2022-11-21T23:48:36.694Z,94285.47
2022-11-21T23:52:26.136Z,94286.28
2022-11-21T23:55:46.840Z,94283.50
2022-11-21T23:59:22.038Z,94297.50
